sensor_id;sensor_type;location;lat;lon;timestamp;temperature;humidity
42339;DHT22;27993;45.392;10.918;2023-04-03T00:00:53;11.30;99.90
42339;DHT22;27993;45.392;10.918;2023-04-03T00:03:24;11.30;99.90
42339;DHT22;27993;45.392;10.918;2023-04-03T00:05:55;11.20;99.90
42339;DHT22;27993;45.392;10.918;2023-04-03T00:08:26;11.20;99.90
42339;DHT22;27993;45.392;10.918;2023-04-03T00:10:57;11.30;99.90
42339;DHT22;27993;45.392;10.918;2023-04-03T00:13:27;11.30;99.90
42339;DHT22;27993;45.392;10.918;2023-04-03T00:15:58;11.30;99.90
42339;DHT22;27993;45.392;10.918;2023-04-03T00:18:29;11.30;99.90
42339;DHT22;27993;45.392;10.918;2023-04-03T00:21:00;11.30;99.90
42339;DHT22;27993;45.392;10.918;2023-04-03T00:23:31;11.30;99.90
42339;DHT22;27993;45.392;10.918;2023-04-03T00:26:02;11.30;99.90
42339;DHT22;27993;45.392;10.918;2023-04-03T00:28:33;11.40;99.90
42339;DHT22;27993;45.392;10.918;2023-04-03T00:31:03;11.40;99.90
42339;DHT22;27993;45.392;10.918;2023-04-03T00:33:34;11.40;99.90
42339;DHT22;27993;45.392;10.918;2023-04-03T00:36:09;11.40;99.90
42339;DHT22;27993;45.392;10.918;2023-04-03T00:38:40;11.40;99.90
42339;DHT22;27993;45.392;10.918;2023-04-03T00:41:10;11.40;99.90
42339;DHT22;27993;45.392;10.918;2023-04-03T00:43:41;11.40;99.90
42339;DHT22;27993;45.392;10.918;2023-04-03T00:46:11;11.30;99.90
42339;DHT22;27993;45.392;10.918;2023-04-03T00:48:44;11.30;99.90
42339;DHT22;27993;45.392;10.918;2023-04-03T00:51:25;11.30;99.90
42339;DHT22;27993;45.392;10.918;2023-04-03T00:54:03;11.10;99.90
42339;DHT22;27993;45.392;10.918;2023-04-03T00:56:35;11.00;99.90
42339;DHT22;27993;45.392;10.918;2023-04-03T00:59:11;11.00;99.90
42339;DHT22;27993;45.392;10.918;2023-04-03T01:01:43;11.10;99.90
42339;DHT22;27993;45.392;10.918;2023-04-03T01:04:31;11.30;99.90
42339;DHT22;27993;45.392;10.918;2023-04-03T01:09:38;11.40;99.90
42339;DHT22;27993;45.392;10.918;2023-04-03T01:14:55;11.20;99.90
42339;DHT22;27993;45.392;10.918;2023-04-03T01:17:36;11.10;99.90
42339;DHT22;27993;45.392;10.918;2023-04-03T01:23:17;10.90;99.90
42339;DHT22;27993;45.392;10.918;2023-04-03T01:25:54;10.70;99.90
42339;DHT22;27993;45.392;10.918;2023-04-03T01:28:28;10.30;99.90
42339;DHT22;27993;45.392;10.918;2023-04-03T01:31:06;10.10;99.90
42339;DHT22;27993;45.392;10.918;2023-04-03T01:33:41;9.90;99.90
42339;DHT22;27993;45.392;10.918;2023-04-03T01:36:21;9.90;99.90
42339;DHT22;27993;45.392;10.918;2023-04-03T01:38:53;10.00;99.90
42339;DHT22;27993;45.392;10.918;2023-04-03T01:41:24;10.10;99.90
42339;DHT22;27993;45.392;10.918;2023-04-03T01:43:55;10.20;99.90
42339;DHT22;27993;45.392;10.918;2023-04-03T01:46:26;10.40;99.90
42339;DHT22;27993;45.392;10.918;2023-04-03T01:48:57;10.30;99.90
42339;DHT22;27993;45.392;10.918;2023-04-03T01:51:28;10.30;99.90
42339;DHT22;27993;45.392;10.918;2023-04-03T01:53:58;10.40;99.90
42339;DHT22;27993;45.392;10.918;2023-04-03T01:56:29;10.30;99.90
42339;DHT22;27993;45.392;10.918;2023-04-03T01:59:00;10.00;99.90
42339;DHT22;27993;45.392;10.918;2023-04-03T02:01:30;10.00;99.90
42339;DHT22;27993;45.392;10.918;2023-04-03T02:04:01;10.00;99.90
42339;DHT22;27993;45.392;10.918;2023-04-03T02:06:31;10.00;99.90
42339;DHT22;27993;45.392;10.918;2023-04-03T02:09:02;10.00;99.90
42339;DHT22;27993;45.392;10.918;2023-04-03T02:11:33;9.70;99.90
42339;DHT22;27993;45.392;10.918;2023-04-03T02:14:04;9.80;99.90
42339;DHT22;27993;45.392;10.918;2023-04-03T02:16:34;9.90;99.90
42339;DHT22;27993;45.392;10.918;2023-04-03T02:19:05;9.80;99.90
42339;DHT22;27993;45.392;10.918;2023-04-03T02:21:36;9.80;99.90
42339;DHT22;27993;45.392;10.918;2023-04-03T02:24:06;9.90;99.90
42339;DHT22;27993;45.392;10.918;2023-04-03T02:26:37;9.80;99.90
42339;DHT22;27993;45.392;10.918;2023-04-03T02:29:08;9.80;99.90
42339;DHT22;27993;45.392;10.918;2023-04-03T02:31:38;9.70;99.90
42339;DHT22;27993;45.392;10.918;2023-04-03T02:34:09;9.60;99.90
42339;DHT22;27993;45.392;10.918;2023-04-03T02:36:39;9.60;99.90
42339;DHT22;27993;45.392;10.918;2023-04-03T02:39:10;9.50;99.90
42339;DHT22;27993;45.392;10.918;2023-04-03T02:41:41;9.40;99.90
42339;DHT22;27993;45.392;10.918;2023-04-03T02:44:13;9.30;99.90
42339;DHT22;27993;45.392;10.918;2023-04-03T02:46:44;9.20;99.90
42339;DHT22;27993;45.392;10.918;2023-04-03T02:49:14;9.30;99.90
42339;DHT22;27993;45.392;10.918;2023-04-03T02:51:45;9.40;99.90
42339;DHT22;27993;45.392;10.918;2023-04-03T02:54:16;9.40;99.90
42339;DHT22;27993;45.392;10.918;2023-04-03T02:56:47;9.40;99.90
42339;DHT22;27993;45.392;10.918;2023-04-03T02:59:17;9.50;99.90
42339;DHT22;27993;45.392;10.918;2023-04-03T03:01:48;9.40;99.90
42339;DHT22;27993;45.392;10.918;2023-04-03T03:04:19;9.50;99.90
42339;DHT22;27993;45.392;10.918;2023-04-03T03:06:49;9.40;99.90
42339;DHT22;27993;45.392;10.918;2023-04-03T03:09:21;9.40;99.90
42339;DHT22;27993;45.392;10.918;2023-04-03T03:11:51;9.20;99.90
42339;DHT22;27993;45.392;10.918;2023-04-03T03:14:23;9.10;99.90
42339;DHT22;27993;45.392;10.918;2023-04-03T03:16:53;8.90;99.90
42339;DHT22;27993;45.392;10.918;2023-04-03T03:19:24;8.80;99.90
42339;DHT22;27993;45.392;10.918;2023-04-03T03:21:54;8.70;99.90
42339;DHT22;27993;45.392;10.918;2023-04-03T03:24:27;8.80;99.90
42339;DHT22;27993;45.392;10.918;2023-04-03T03:26:57;8.90;99.90
42339;DHT22;27993;45.392;10.918;2023-04-03T03:29:28;9.10;99.90
42339;DHT22;27993;45.392;10.918;2023-04-03T03:31:58;9.20;99.90
42339;DHT22;27993;45.392;10.918;2023-04-03T03:34:29;9.20;99.90
42339;DHT22;27993;45.392;10.918;2023-04-03T03:37:00;9.20;99.90
42339;DHT22;27993;45.392;10.918;2023-04-03T03:39:30;9.20;99.90
42339;DHT22;27993;45.392;10.918;2023-04-03T03:42:01;9.20;99.90
42339;DHT22;27993;45.392;10.918;2023-04-03T03:44:31;9.30;99.90
42339;DHT22;27993;45.392;10.918;2023-04-03T03:47:02;9.20;99.90
42339;DHT22;27993;45.392;10.918;2023-04-03T03:49:33;9.00;99.90
42339;DHT22;27993;45.392;10.918;2023-04-03T03:52:04;9.00;99.90
42339;DHT22;27993;45.392;10.918;2023-04-03T03:54:34;8.90;99.90
42339;DHT22;27993;45.392;10.918;2023-04-03T03:57:05;8.80;99.90
42339;DHT22;27993;45.392;10.918;2023-04-03T03:59:35;8.70;99.90
42339;DHT22;27993;45.392;10.918;2023-04-03T04:02:06;8.50;99.90
42339;DHT22;27993;45.392;10.918;2023-04-03T04:04:37;8.40;99.90
42339;DHT22;27993;45.392;10.918;2023-04-03T04:07:07;8.40;99.90
42339;DHT22;27993;45.392;10.918;2023-04-03T04:09:38;8.50;99.90
42339;DHT22;27993;45.392;10.918;2023-04-03T04:12:09;8.50;99.90
42339;DHT22;27993;45.392;10.918;2023-04-03T04:14:39;8.60;99.90
42339;DHT22;27993;45.392;10.918;2023-04-03T04:17:10;8.70;99.90
42339;DHT22;27993;45.392;10.918;2023-04-03T04:19:41;8.80;99.90
42339;DHT22;27993;45.392;10.918;2023-04-03T04:22:11;8.90;99.90
42339;DHT22;27993;45.392;10.918;2023-04-03T04:24:42;8.80;99.90
42339;DHT22;27993;45.392;10.918;2023-04-03T04:27:12;8.80;99.90
42339;DHT22;27993;45.392;10.918;2023-04-03T04:29:43;8.70;99.90
42339;DHT22;27993;45.392;10.918;2023-04-03T04:32:14;8.50;99.90
42339;DHT22;27993;45.392;10.918;2023-04-03T04:34:44;8.70;99.90
42339;DHT22;27993;45.392;10.918;2023-04-03T04:37:15;8.80;99.90
42339;DHT22;27993;45.392;10.918;2023-04-03T04:39:46;8.70;99.90
42339;DHT22;27993;45.392;10.918;2023-04-03T04:42:16;8.80;99.90
42339;DHT22;27993;45.392;10.918;2023-04-03T04:44:47;8.90;99.90
42339;DHT22;27993;45.392;10.918;2023-04-03T04:47:17;9.10;99.90
42339;DHT22;27993;45.392;10.918;2023-04-03T04:49:48;9.20;99.90
42339;DHT22;27993;45.392;10.918;2023-04-03T04:52:19;8.80;99.90
42339;DHT22;27993;45.392;10.918;2023-04-03T04:54:49;8.50;99.90
42339;DHT22;27993;45.392;10.918;2023-04-03T04:57:20;8.40;99.90
42339;DHT22;27993;45.392;10.918;2023-04-03T04:59:50;8.60;99.90
42339;DHT22;27993;45.392;10.918;2023-04-03T05:02:21;9.00;99.90
42339;DHT22;27993;45.392;10.918;2023-04-03T05:04:52;9.20;99.90
42339;DHT22;27993;45.392;10.918;2023-04-03T05:07:22;9.40;99.90
42339;DHT22;27993;45.392;10.918;2023-04-03T05:09:53;9.60;99.90
42339;DHT22;27993;45.392;10.918;2023-04-03T05:12:24;9.70;99.90
42339;DHT22;27993;45.392;10.918;2023-04-03T05:14:55;9.80;99.90
42339;DHT22;27993;45.392;10.918;2023-04-03T05:17:25;10.00;99.90
42339;DHT22;27993;45.392;10.918;2023-04-03T05:19:56;10.10;99.90
42339;DHT22;27993;45.392;10.918;2023-04-03T05:22:26;10.50;99.90
42339;DHT22;27993;45.392;10.918;2023-04-03T05:24:57;10.70;99.90
42339;DHT22;27993;45.392;10.918;2023-04-03T05:27:27;10.90;99.90
42339;DHT22;27993;45.392;10.918;2023-04-03T05:29:58;11.20;99.90
42339;DHT22;27993;45.392;10.918;2023-04-03T05:32:30;11.30;99.90
42339;DHT22;27993;45.392;10.918;2023-04-03T05:35:00;11.60;99.90
42339;DHT22;27993;45.392;10.918;2023-04-03T05:37:31;11.80;99.90
42339;DHT22;27993;45.392;10.918;2023-04-03T05:40:03;11.90;99.90
42339;DHT22;27993;45.392;10.918;2023-04-03T05:42:33;12.40;99.90
42339;DHT22;27993;45.392;10.918;2023-04-03T05:45:04;12.90;99.90
42339;DHT22;27993;45.392;10.918;2023-04-03T05:47:35;13.20;99.90
42339;DHT22;27993;45.392;10.918;2023-04-03T05:50:06;13.10;99.90
42339;DHT22;27993;45.392;10.918;2023-04-03T05:52:40;13.10;99.90
42339;DHT22;27993;45.392;10.918;2023-04-03T05:55:13;13.00;99.90
42339;DHT22;27993;45.392;10.918;2023-04-03T05:57:43;13.30;99.90
42339;DHT22;27993;45.392;10.918;2023-04-03T06:00:15;13.70;99.90
42339;DHT22;27993;45.392;10.918;2023-04-03T06:02:45;13.70;99.90
42339;DHT22;27993;45.392;10.918;2023-04-03T06:05:16;14.00;99.90
42339;DHT22;27993;45.392;10.918;2023-04-03T06:07:47;14.50;99.90
42339;DHT22;27993;45.392;10.918;2023-04-03T06:10:19;15.10;99.90
42339;DHT22;27993;45.392;10.918;2023-04-03T06:12:50;15.40;99.90
42339;DHT22;27993;45.392;10.918;2023-04-03T06:15:21;16.10;99.90
42339;DHT22;27993;45.392;10.918;2023-04-03T06:17:52;15.70;99.90
42339;DHT22;27993;45.392;10.918;2023-04-03T06:20:22;15.80;99.90
42339;DHT22;27993;45.392;10.918;2023-04-03T06:22:53;15.90;99.90
42339;DHT22;27993;45.392;10.918;2023-04-03T06:25:24;16.10;99.90
42339;DHT22;27993;45.392;10.918;2023-04-03T06:27:54;16.50;99.90
42339;DHT22;27993;45.392;10.918;2023-04-03T06:30:25;16.50;99.90
42339;DHT22;27993;45.392;10.918;2023-04-03T06:32:56;16.50;99.90
42339;DHT22;27993;45.392;10.918;2023-04-03T06:35:27;16.10;99.90
42339;DHT22;27993;45.392;10.918;2023-04-03T06:37:58;15.80;99.90
42339;DHT22;27993;45.392;10.918;2023-04-03T06:40:29;15.30;99.90
42339;DHT22;27993;45.392;10.918;2023-04-03T06:43:00;16.20;99.90
42339;DHT22;27993;45.392;10.918;2023-04-03T06:45:31;16.30;99.90
42339;DHT22;27993;45.392;10.918;2023-04-03T06:48:02;16.10;99.90
42339;DHT22;27993;45.392;10.918;2023-04-03T06:50:32;16.10;99.90
42339;DHT22;27993;45.392;10.918;2023-04-03T06:53:03;15.90;99.90
42339;DHT22;27993;45.392;10.918;2023-04-03T06:55:34;16.00;99.90
42339;DHT22;27993;45.392;10.918;2023-04-03T06:58:05;15.90;99.90
42339;DHT22;27993;45.392;10.918;2023-04-03T07:00:35;15.90;99.90
42339;DHT22;27993;45.392;10.918;2023-04-03T07:03:06;16.00;99.90
42339;DHT22;27993;45.392;10.918;2023-04-03T07:05:37;16.30;99.90
42339;DHT22;27993;45.392;10.918;2023-04-03T07:08:07;16.30;99.90
42339;DHT22;27993;45.392;10.918;2023-04-03T07:10:38;16.50;99.90
42339;DHT22;27993;45.392;10.918;2023-04-03T07:13:09;16.70;99.90
42339;DHT22;27993;45.392;10.918;2023-04-03T07:15:39;16.90;99.90
42339;DHT22;27993;45.392;10.918;2023-04-03T07:18:10;16.70;99.90
42339;DHT22;27993;45.392;10.918;2023-04-03T07:20:40;16.50;99.90
42339;DHT22;27993;45.392;10.918;2023-04-03T07:23:11;16.40;99.90
42339;DHT22;27993;45.392;10.918;2023-04-03T07:25:46;16.30;99.90
42339;DHT22;27993;45.392;10.918;2023-04-03T07:28:19;16.40;99.90
42339;DHT22;27993;45.392;10.918;2023-04-03T07:31:00;16.40;99.90
42339;DHT22;27993;45.392;10.918;2023-04-03T07:33:32;16.90;99.90
42339;DHT22;27993;45.392;10.918;2023-04-03T07:36:03;17.10;99.90
42339;DHT22;27993;45.392;10.918;2023-04-03T07:38:35;17.10;99.90
42339;DHT22;27993;45.392;10.918;2023-04-03T07:41:06;17.30;99.90
42339;DHT22;27993;45.392;10.918;2023-04-03T07:43:41;17.00;99.90
42339;DHT22;27993;45.392;10.918;2023-04-03T07:46:12;17.40;99.90
42339;DHT22;27993;45.392;10.918;2023-04-03T07:48:43;17.10;99.90
42339;DHT22;27993;45.392;10.918;2023-04-03T07:51:14;17.10;99.90
42339;DHT22;27993;45.392;10.918;2023-04-03T07:53:45;16.80;99.90
42339;DHT22;27993;45.392;10.918;2023-04-03T07:56:16;16.50;99.90
42339;DHT22;27993;45.392;10.918;2023-04-03T07:58:47;16.60;99.90
42339;DHT22;27993;45.392;10.918;2023-04-03T08:01:17;17.10;99.90
42339;DHT22;27993;45.392;10.918;2023-04-03T08:03:48;17.20;99.90
42339;DHT22;27993;45.392;10.918;2023-04-03T08:06:19;17.30;99.90
42339;DHT22;27993;45.392;10.918;2023-04-03T08:08:49;17.30;99.90
42339;DHT22;27993;45.392;10.918;2023-04-03T08:11:20;17.30;99.90
42339;DHT22;27993;45.392;10.918;2023-04-03T08:13:51;17.90;99.90
42339;DHT22;27993;45.392;10.918;2023-04-03T08:16:24;17.50;99.90
42339;DHT22;27993;45.392;10.918;2023-04-03T08:18:57;17.40;99.90
42339;DHT22;27993;45.392;10.918;2023-04-03T08:21:28;17.50;99.90
42339;DHT22;27993;45.392;10.918;2023-04-03T08:23:59;17.80;99.90
42339;DHT22;27993;45.392;10.918;2023-04-03T08:26:29;17.70;99.90
42339;DHT22;27993;45.392;10.918;2023-04-03T08:29:00;18.10;99.90
42339;DHT22;27993;45.392;10.918;2023-04-03T08:31:30;17.40;99.90
42339;DHT22;27993;45.392;10.918;2023-04-03T08:34:01;17.70;99.90
42339;DHT22;27993;45.392;10.918;2023-04-03T08:36:32;17.80;99.90
42339;DHT22;27993;45.392;10.918;2023-04-03T08:39:03;18.30;99.90
42339;DHT22;27993;45.392;10.918;2023-04-03T08:41:36;18.20;99.90
42339;DHT22;27993;45.392;10.918;2023-04-03T08:44:19;18.00;99.90
42339;DHT22;27993;45.392;10.918;2023-04-03T08:49:44;17.50;99.90
42339;DHT22;27993;45.392;10.918;2023-04-03T08:52:47;17.60;99.90
42339;DHT22;27993;45.392;10.918;2023-04-03T08:55:28;18.10;99.90
42339;DHT22;27993;45.392;10.918;2023-04-03T08:58:19;18.40;99.90
42339;DHT22;27993;45.392;10.918;2023-04-03T09:03:24;17.50;99.90
42339;DHT22;27993;45.392;10.918;2023-04-03T09:06:13;18.00;99.90
42339;DHT22;27993;45.392;10.918;2023-04-03T09:11:27;18.70;99.90
42339;DHT22;27993;45.392;10.918;2023-04-03T09:17:00;18.00;99.90
42339;DHT22;27993;45.392;10.918;2023-04-03T09:19:45;18.50;99.90
42339;DHT22;27993;45.392;10.918;2023-04-03T09:22:24;18.50;99.90
42339;DHT22;27993;45.392;10.918;2023-04-03T09:25:11;17.10;99.90
42339;DHT22;27993;45.392;10.918;2023-04-03T09:27:43;17.50;99.90
42339;DHT22;27993;45.392;10.918;2023-04-03T09:30:14;18.40;99.90
42339;DHT22;27993;45.392;10.918;2023-04-03T09:32:48;19.00;99.90
42339;DHT22;27993;45.392;10.918;2023-04-03T09:35:33;18.60;99.90
42339;DHT22;27993;45.392;10.918;2023-04-03T09:40:46;18.50;99.90
42339;DHT22;27993;45.392;10.918;2023-04-03T09:45:49;18.90;99.90
42339;DHT22;27993;45.392;10.918;2023-04-03T09:48:22;16.70;99.90
42339;DHT22;27993;45.392;10.918;2023-04-03T09:50:58;16.50;99.90
42339;DHT22;27993;45.392;10.918;2023-04-03T09:53:32;17.30;99.90
42339;DHT22;27993;45.392;10.918;2023-04-03T10:01:37;16.60;99.90
42339;DHT22;27993;45.392;10.918;2023-04-03T10:04:17;15.60;99.90
42339;DHT22;27993;45.392;10.918;2023-04-03T10:06:51;15.20;99.90
42339;DHT22;27993;45.392;10.918;2023-04-03T10:14:40;19.90;99.90
42339;DHT22;27993;45.392;10.918;2023-04-03T10:20:03;18.40;99.90
42339;DHT22;27993;45.392;10.918;2023-04-03T10:28:06;16.80;99.90
42339;DHT22;27993;45.392;10.918;2023-04-03T10:33:28;18.40;99.90
42339;DHT22;27993;45.392;10.918;2023-04-03T10:45:14;18.30;99.90
42339;DHT22;27993;45.392;10.918;2023-04-03T10:50:50;18.30;99.90
42339;DHT22;27993;45.392;10.918;2023-04-03T10:56:24;17.80;99.90
42339;DHT22;27993;45.392;10.918;2023-04-03T10:59:02;18.40;99.90
42339;DHT22;27993;45.392;10.918;2023-04-03T11:01:39;19.10;99.90
42339;DHT22;27993;45.392;10.918;2023-04-03T11:04:12;18.90;99.90
42339;DHT22;27993;45.392;10.918;2023-04-03T11:07:32;19.00;99.90
42339;DHT22;27993;45.392;10.918;2023-04-03T11:09:44;18.90;99.70
42339;DHT22;27993;45.392;10.918;2023-04-03T11:12:38;17.10;99.90
42339;DHT22;27993;45.392;10.918;2023-04-03T11:15:15;16.60;99.90
42339;DHT22;27993;45.392;10.918;2023-04-03T11:17:58;17.10;99.90
42339;DHT22;27993;45.392;10.918;2023-04-03T11:20:32;16.50;99.90
42339;DHT22;27993;45.392;10.918;2023-04-03T11:23:12;15.50;99.90
42339;DHT22;27993;45.392;10.918;2023-04-03T11:25:44;15.30;99.90
42339;DHT22;27993;45.392;10.918;2023-04-03T11:28:16;15.50;99.90
42339;DHT22;27993;45.392;10.918;2023-04-03T11:31:15;15.40;99.90
42339;DHT22;27993;45.392;10.918;2023-04-03T11:36:26;15.60;99.90
42339;DHT22;27993;45.392;10.918;2023-04-03T11:39:06;15.90;99.90
42339;DHT22;27993;45.392;10.918;2023-04-03T11:41:38;16.10;99.90
42339;DHT22;27993;45.392;10.918;2023-04-03T11:44:32;16.10;99.90
42339;DHT22;27993;45.392;10.918;2023-04-03T11:47:06;16.20;99.90
42339;DHT22;27993;45.392;10.918;2023-04-03T11:49:59;15.80;99.90
42339;DHT22;27993;45.392;10.918;2023-04-03T12:19:39;16.60;99.90
42339;DHT22;27993;45.392;10.918;2023-04-03T12:22:16;16.50;99.90
42339;DHT22;27993;45.392;10.918;2023-04-03T12:24:51;16.40;99.90
42339;DHT22;27993;45.392;10.918;2023-04-03T12:27:25;16.10;99.90
42339;DHT22;27993;45.392;10.918;2023-04-03T12:35:31;16.20;99.90
42339;DHT22;27993;45.392;10.918;2023-04-03T12:46:50;16.40;99.50
42339;DHT22;27993;45.392;10.918;2023-04-03T12:51:57;16.30;99.80
42339;DHT22;27993;45.392;10.918;2023-04-03T12:54:35;16.30;99.90
42339;DHT22;27993;45.392;10.918;2023-04-03T12:57:25;16.30;99.90
42339;DHT22;27993;45.392;10.918;2023-04-03T12:59:58;16.10;99.90
42339;DHT22;27993;45.392;10.918;2023-04-03T13:02:32;16.10;99.70
42339;DHT22;27993;45.392;10.918;2023-04-03T13:05:09;16.10;99.80
42339;DHT22;27993;45.392;10.918;2023-04-03T13:07:40;15.80;99.20
42339;DHT22;27993;45.392;10.918;2023-04-03T13:10:16;15.80;99.80
42339;DHT22;27993;45.392;10.918;2023-04-03T13:12:58;15.90;99.50
42339;DHT22;27993;45.392;10.918;2023-04-03T13:15:45;15.70;99.20
42339;DHT22;27993;45.392;10.918;2023-04-03T13:18:32;15.60;99.80
42339;DHT22;27993;45.392;10.918;2023-04-03T13:21:07;15.30;99.20
42339;DHT22;27993;45.392;10.918;2023-04-03T13:23:45;15.40;99.90
42339;DHT22;27993;45.392;10.918;2023-04-03T13:26:18;15.00;99.80
42339;DHT22;27993;45.392;10.918;2023-04-03T13:28:50;15.00;99.90
42339;DHT22;27993;45.392;10.918;2023-04-03T13:31:39;14.90;99.90
42339;DHT22;27993;45.392;10.918;2023-04-03T13:34:12;15.00;99.90
42339;DHT22;27993;45.392;10.918;2023-04-03T13:41:51;15.10;99.90
42339;DHT22;27993;45.392;10.918;2023-04-03T13:46:57;15.20;99.90
42339;DHT22;27993;45.392;10.918;2023-04-03T13:49:41;15.20;99.90
42339;DHT22;27993;45.392;10.918;2023-04-03T13:52:32;15.20;99.90
42339;DHT22;27993;45.392;10.918;2023-04-03T13:55:30;15.20;99.90
42339;DHT22;27993;45.392;10.918;2023-04-03T14:06:23;15.20;99.90
42339;DHT22;27993;45.392;10.918;2023-04-03T14:08:54;15.10;99.90
42339;DHT22;27993;45.392;10.918;2023-04-03T14:11:29;15.10;99.90
42339;DHT22;27993;45.392;10.918;2023-04-03T14:14:11;15.00;99.90
42339;DHT22;27993;45.392;10.918;2023-04-03T14:16:46;14.80;99.90
42339;DHT22;27993;45.392;10.918;2023-04-03T14:19:28;15.00;99.90
42339;DHT22;27993;45.392;10.918;2023-04-03T14:22:01;15.00;99.90
42339;DHT22;27993;45.392;10.918;2023-04-03T14:24:33;15.10;99.90
42339;DHT22;27993;45.392;10.918;2023-04-03T14:27:19;15.20;99.90
42339;DHT22;27993;45.392;10.918;2023-04-03T14:29:51;15.10;99.90
42339;DHT22;27993;45.392;10.918;2023-04-03T14:32:23;15.00;99.90
42339;DHT22;27993;45.392;10.918;2023-04-03T14:34:55;14.80;99.90
42339;DHT22;27993;45.392;10.918;2023-04-03T14:37:29;14.70;99.90
42339;DHT22;27993;45.392;10.918;2023-04-03T14:40:01;14.90;99.90
42339;DHT22;27993;45.392;10.918;2023-04-03T14:42:36;15.10;99.90
42339;DHT22;27993;45.392;10.918;2023-04-03T14:45:11;15.10;99.90
42339;DHT22;27993;45.392;10.918;2023-04-03T14:47:49;15.00;99.90
42339;DHT22;27993;45.392;10.918;2023-04-03T14:50:23;14.80;99.90
42339;DHT22;27993;45.392;10.918;2023-04-03T14:52:57;15.00;99.90
42339;DHT22;27993;45.392;10.918;2023-04-03T14:55:29;15.00;99.90
42339;DHT22;27993;45.392;10.918;2023-04-03T14:58:00;15.10;99.90
42339;DHT22;27993;45.392;10.918;2023-04-03T15:00:31;15.00;99.90
42339;DHT22;27993;45.392;10.918;2023-04-03T15:03:02;14.90;99.90
42339;DHT22;27993;45.392;10.918;2023-04-03T15:05:35;14.80;99.90
42339;DHT22;27993;45.392;10.918;2023-04-03T15:08:31;14.90;99.90
42339;DHT22;27993;45.392;10.918;2023-04-03T15:11:02;14.90;99.90
42339;DHT22;27993;45.392;10.918;2023-04-03T15:13:32;15.00;99.90
42339;DHT22;27993;45.392;10.918;2023-04-03T15:16:04;15.00;99.90
42339;DHT22;27993;45.392;10.918;2023-04-03T15:18:37;14.90;99.90
42339;DHT22;27993;45.392;10.918;2023-04-03T15:21:08;14.90;99.90
42339;DHT22;27993;45.392;10.918;2023-04-03T15:23:39;15.00;99.90
42339;DHT22;27993;45.392;10.918;2023-04-03T15:26:10;14.80;99.90
42339;DHT22;27993;45.392;10.918;2023-04-03T15:28:42;14.90;99.90
42339;DHT22;27993;45.392;10.918;2023-04-03T15:31:12;14.90;99.90
42339;DHT22;27993;45.392;10.918;2023-04-03T15:33:43;14.80;99.90
42339;DHT22;27993;45.392;10.918;2023-04-03T15:36:13;14.70;99.90
42339;DHT22;27993;45.392;10.918;2023-04-03T15:38:44;14.90;99.90
42339;DHT22;27993;45.392;10.918;2023-04-03T15:41:15;14.90;99.20
42339;DHT22;27993;45.392;10.918;2023-04-03T15:43:45;14.80;99.50
42339;DHT22;27993;45.392;10.918;2023-04-03T15:46:16;14.70;99.40
42339;DHT22;27993;45.392;10.918;2023-04-03T15:48:47;14.70;99.70
42339;DHT22;27993;45.392;10.918;2023-04-03T15:51:17;14.60;99.50
42339;DHT22;27993;45.392;10.918;2023-04-03T15:53:48;14.60;99.80
42339;DHT22;27993;45.392;10.918;2023-04-03T15:56:19;14.60;99.50
42339;DHT22;27993;45.392;10.918;2023-04-03T15:58:49;14.60;99.20
42339;DHT22;27993;45.392;10.918;2023-04-03T16:01:20;14.60;99.90
42339;DHT22;27993;45.392;10.918;2023-04-03T16:03:50;14.70;99.10
42339;DHT22;27993;45.392;10.918;2023-04-03T16:06:21;14.70;98.60
42339;DHT22;27993;45.392;10.918;2023-04-03T16:08:52;14.70;98.50
42339;DHT22;27993;45.392;10.918;2023-04-03T16:11:27;14.70;98.60
42339;DHT22;27993;45.392;10.918;2023-04-03T16:13:58;14.70;98.80
42339;DHT22;27993;45.392;10.918;2023-04-03T16:16:29;14.60;99.00
42339;DHT22;27993;45.392;10.918;2023-04-03T16:19:00;14.70;98.70
42339;DHT22;27993;45.392;10.918;2023-04-03T16:21:32;14.60;98.60
42339;DHT22;27993;45.392;10.918;2023-04-03T16:24:03;14.50;98.30
42339;DHT22;27993;45.392;10.918;2023-04-03T16:26:34;14.60;98.30
42339;DHT22;27993;45.392;10.918;2023-04-03T16:29:04;14.60;98.00
42339;DHT22;27993;45.392;10.918;2023-04-03T16:31:35;14.60;98.00
42339;DHT22;27993;45.392;10.918;2023-04-03T16:34:06;14.60;97.90
42339;DHT22;27993;45.392;10.918;2023-04-03T16:36:36;14.50;98.10
42339;DHT22;27993;45.392;10.918;2023-04-03T16:39:08;14.50;97.00
42339;DHT22;27993;45.392;10.918;2023-04-03T16:41:40;14.50;97.30
42339;DHT22;27993;45.392;10.918;2023-04-03T16:44:11;14.40;97.50
42339;DHT22;27993;45.392;10.918;2023-04-03T16:46:41;14.30;97.30
42339;DHT22;27993;45.392;10.918;2023-04-03T16:49:12;14.10;97.10
42339;DHT22;27993;45.392;10.918;2023-04-03T16:51:43;13.90;97.00
42339;DHT22;27993;45.392;10.918;2023-04-03T16:54:13;13.80;97.00
42339;DHT22;27993;45.392;10.918;2023-04-03T16:56:44;13.70;97.50
42339;DHT22;27993;45.392;10.918;2023-04-03T16:59:14;13.70;97.80
42339;DHT22;27993;45.392;10.918;2023-04-03T17:01:46;13.60;97.70
42339;DHT22;27993;45.392;10.918;2023-04-03T17:04:16;13.60;97.70
42339;DHT22;27993;45.392;10.918;2023-04-03T17:06:47;13.50;97.70
42339;DHT22;27993;45.392;10.918;2023-04-03T17:09:18;13.60;97.60
42339;DHT22;27993;45.392;10.918;2023-04-03T17:11:50;13.50;97.60
42339;DHT22;27993;45.392;10.918;2023-04-03T17:14:21;13.40;97.10
42339;DHT22;27993;45.392;10.918;2023-04-03T17:16:52;13.40;97.20
42339;DHT22;27993;45.392;10.918;2023-04-03T17:19:23;13.40;96.90
42339;DHT22;27993;45.392;10.918;2023-04-03T17:21:54;13.30;96.90
42339;DHT22;27993;45.392;10.918;2023-04-03T17:24:25;13.30;97.00
42339;DHT22;27993;45.392;10.918;2023-04-03T17:26:56;13.20;96.80
42339;DHT22;27993;45.392;10.918;2023-04-03T17:29:26;13.20;96.60
42339;DHT22;27993;45.392;10.918;2023-04-03T17:31:57;13.20;96.30
42339;DHT22;27993;45.392;10.918;2023-04-03T17:34:29;13.20;96.10
42339;DHT22;27993;45.392;10.918;2023-04-03T17:36:59;13.10;96.00
42339;DHT22;27993;45.392;10.918;2023-04-03T17:39:30;13.00;95.90
42339;DHT22;27993;45.392;10.918;2023-04-03T17:42:01;12.90;95.90
42339;DHT22;27993;45.392;10.918;2023-04-03T17:44:32;12.90;96.10
42339;DHT22;27993;45.392;10.918;2023-04-03T17:47:02;12.90;96.20
42339;DHT22;27993;45.392;10.918;2023-04-03T17:49:33;12.80;96.20
42339;DHT22;27993;45.392;10.918;2023-04-03T17:52:03;12.80;96.20
42339;DHT22;27993;45.392;10.918;2023-04-03T17:54:34;12.80;96.20
42339;DHT22;27993;45.392;10.918;2023-04-03T17:57:05;12.80;96.70
42339;DHT22;27993;45.392;10.918;2023-04-03T17:59:36;12.80;97.10